sensor_id;sensor_type;location;lat;lon;timestamp;P1;durP1;ratioP1;P2;durP2;ratioP2
5758;SDS011;2904;48.788;9.196;2022-10-19T00:01:47;13.05;;;7.47;;
5758;SDS011;2904;48.788;9.196;2022-10-19T00:04:13;12.48;;;8.10;;
5758;SDS011;2904;48.788;9.196;2022-10-19T00:06:38;12.50;;;8.30;;
5758;SDS011;2904;48.788;9.196;2022-10-19T00:09:06;36.25;;;18.62;;
5758;SDS011;2904;48.788;9.196;2022-10-19T00:11:38;16.35;;;9.93;;
5758;SDS011;2904;48.788;9.196;2022-10-19T00:14:05;13.75;;;9.02;;
5758;SDS011;2904;48.788;9.196;2022-10-19T00:16:33;13.10;;;9.00;;
5758;SDS011;2904;48.788;9.196;2022-10-19T00:19:02;11.38;;;8.32;;
5758;SDS011;2904;48.788;9.196;2022-10-19T00:21:30;14.32;;;9.18;;
5758;SDS011;2904;48.788;9.196;2022-10-19T00:23:55;14.18;;;8.95;;
5758;SDS011;2904;48.788;9.196;2022-10-19T00:26:21;22.80;;;9.68;;
5758;SDS011;2904;48.788;9.196;2022-10-19T00:28:47;12.88;;;8.90;;
5758;SDS011;2904;48.788;9.196;2022-10-19T00:31:14;17.00;;;9.05;;
5758;SDS011;2904;48.788;9.196;2022-10-19T00:33:42;13.50;;;9.10;;
5758;SDS011;2904;48.788;9.196;2022-10-19T00:36:14;14.50;;;8.85;;
5758;SDS011;2904;48.788;9.196;2022-10-19T00:38:45;16.20;;;8.95;;
5758;SDS011;2904;48.788;9.196;2022-10-19T00:41:11;14.80;;;8.75;;
5758;SDS011;2904;48.788;9.196;2022-10-19T00:47:55;18.27;;;9.20;;
5758;SDS011;2904;48.788;9.196;2022-10-19T00:50:20;19.90;;;9.18;;
5758;SDS011;2904;48.788;9.196;2022-10-19T00:52:46;15.43;;;9.18;;
5758;SDS011;2904;48.788;9.196;2022-10-19T00:55:12;14.95;;;8.88;;
5758;SDS011;2904;48.788;9.196;2022-10-19T00:57:37;14.82;;;8.70;;
5758;SDS011;2904;48.788;9.196;2022-10-19T01:00:05;14.13;;;8.85;;
5758;SDS011;2904;48.788;9.196;2022-10-19T01:02:32;13.23;;;8.85;;
5758;SDS011;2904;48.788;9.196;2022-10-19T01:04:58;15.82;;;9.95;;
5758;SDS011;2904;48.788;9.196;2022-10-19T01:07:26;14.43;;;9.38;;
5758;SDS011;2904;48.788;9.196;2022-10-19T01:09:52;13.48;;;8.02;;
5758;SDS011;2904;48.788;9.196;2022-10-19T01:12:28;13.05;;;8.75;;
5758;SDS011;2904;48.788;9.196;2022-10-19T01:18:11;11.23;;;8.27;;
5758;SDS011;2904;48.788;9.196;2022-10-19T01:21:02;16.40;;;8.60;;
5758;SDS011;2904;48.788;9.196;2022-10-19T01:25:34;14.93;;;8.23;;
5758;SDS011;2904;48.788;9.196;2022-10-19T01:28:23;13.82;;;8.00;;
5758;SDS011;2904;48.788;9.196;2022-10-19T01:31:48;15.95;;;8.32;;
5758;SDS011;2904;48.788;9.196;2022-10-19T01:34:31;13.90;;;8.35;;
5758;SDS011;2904;48.788;9.196;2022-10-19T01:37:16;15.68;;;8.25;;
5758;SDS011;2904;48.788;9.196;2022-10-19T01:40:03;12.23;;;8.20;;
5758;SDS011;2904;48.788;9.196;2022-10-19T01:44:15;12.25;;;7.87;;
5758;SDS011;2904;48.788;9.196;2022-10-19T01:48:34;16.00;;;9.10;;
5758;SDS011;2904;48.788;9.196;2022-10-19T01:51:05;15.13;;;8.48;;
5758;SDS011;2904;48.788;9.196;2022-10-19T01:53:39;11.90;;;8.02;;
5758;SDS011;2904;48.788;9.196;2022-10-19T01:56:08;14.07;;;8.60;;
5758;SDS011;2904;48.788;9.196;2022-10-19T01:58:36;13.02;;;9.00;;
5758;SDS011;2904;48.788;9.196;2022-10-19T02:01:05;20.63;;;13.10;;
5758;SDS011;2904;48.788;9.196;2022-10-19T02:03:34;15.00;;;9.50;;
5758;SDS011;2904;48.788;9.196;2022-10-19T02:06:02;19.27;;;11.52;;
5758;SDS011;2904;48.788;9.196;2022-10-19T02:08:51;14.68;;;9.40;;
5758;SDS011;2904;48.788;9.196;2022-10-19T02:11:18;16.62;;;9.20;;
5758;SDS011;2904;48.788;9.196;2022-10-19T02:13:46;19.50;;;9.80;;
5758;SDS011;2904;48.788;9.196;2022-10-19T02:16:16;23.02;;;11.20;;
5758;SDS011;2904;48.788;9.196;2022-10-19T02:19:29;23.42;;;10.60;;
5758;SDS011;2904;48.788;9.196;2022-10-19T02:21:55;24.15;;;12.07;;
5758;SDS011;2904;48.788;9.196;2022-10-19T02:24:21;30.15;;;11.40;;
5758;SDS011;2904;48.788;9.196;2022-10-19T02:26:47;29.02;;;11.35;;
5758;SDS011;2904;48.788;9.196;2022-10-19T02:29:14;32.58;;;18.42;;
5758;SDS011;2904;48.788;9.196;2022-10-19T02:31:41;25.10;;;12.00;;
5758;SDS011;2904;48.788;9.196;2022-10-19T02:34:07;31.55;;;12.90;;
5758;SDS011;2904;48.788;9.196;2022-10-19T02:36:34;28.48;;;12.48;;
5758;SDS011;2904;48.788;9.196;2022-10-19T02:39:00;25.98;;;12.60;;
5758;SDS011;2904;48.788;9.196;2022-10-19T02:41:30;31.52;;;12.90;;
5758;SDS011;2904;48.788;9.196;2022-10-19T02:45:23;35.65;;;13.70;;
5758;SDS011;2904;48.788;9.196;2022-10-19T02:47:57;23.95;;;11.90;;
5758;SDS011;2904;48.788;9.196;2022-10-19T02:50:32;31.45;;;12.63;;
5758;SDS011;2904;48.788;9.196;2022-10-19T02:52:58;26.58;;;13.00;;
5758;SDS011;2904;48.788;9.196;2022-10-19T02:55:24;29.58;;;12.32;;
5758;SDS011;2904;48.788;9.196;2022-10-19T02:57:50;30.33;;;12.43;;
5758;SDS011;2904;48.788;9.196;2022-10-19T03:00:16;27.55;;;12.52;;
5758;SDS011;2904;48.788;9.196;2022-10-19T03:02:43;30.12;;;13.23;;
5758;SDS011;2904;48.788;9.196;2022-10-19T03:05:09;33.75;;;12.95;;
5758;SDS011;2904;48.788;9.196;2022-10-19T03:07:35;36.42;;;13.13;;
5758;SDS011;2904;48.788;9.196;2022-10-19T03:10:00;30.95;;;13.10;;
5758;SDS011;2904;48.788;9.196;2022-10-19T03:12:26;37.80;;;13.50;;
5758;SDS011;2904;48.788;9.196;2022-10-19T03:14:52;30.12;;;14.30;;
5758;SDS011;2904;48.788;9.196;2022-10-19T03:17:17;34.70;;;14.63;;
5758;SDS011;2904;48.788;9.196;2022-10-19T03:19:43;32.42;;;14.57;;
5758;SDS011;2904;48.788;9.196;2022-10-19T03:22:09;37.92;;;14.45;;
5758;SDS011;2904;48.788;9.196;2022-10-19T03:24:36;42.28;;;16.77;;
5758;SDS011;2904;48.788;9.196;2022-10-19T03:27:02;46.30;;;17.77;;
5758;SDS011;2904;48.788;9.196;2022-10-19T03:29:28;51.15;;;18.62;;
5758;SDS011;2904;48.788;9.196;2022-10-19T03:31:53;59.25;;;19.85;;
5758;SDS011;2904;48.788;9.196;2022-10-19T03:34:19;53.87;;;17.73;;
5758;SDS011;2904;48.788;9.196;2022-10-19T03:36:45;49.35;;;18.33;;
5758;SDS011;2904;48.788;9.196;2022-10-19T03:39:12;48.65;;;18.20;;
5758;SDS011;2904;48.788;9.196;2022-10-19T03:41:39;43.13;;;18.15;;
5758;SDS011;2904;48.788;9.196;2022-10-19T03:44:06;60.53;;;20.88;;
5758;SDS011;2904;48.788;9.196;2022-10-19T03:46:33;54.92;;;19.20;;
5758;SDS011;2904;48.788;9.196;2022-10-19T03:49:00;63.13;;;20.67;;
5758;SDS011;2904;48.788;9.196;2022-10-19T03:51:27;49.85;;;19.15;;
5758;SDS011;2904;48.788;9.196;2022-10-19T03:53:55;56.30;;;19.85;;
5758;SDS011;2904;48.788;9.196;2022-10-19T03:56:24;57.28;;;20.50;;
5758;SDS011;2904;48.788;9.196;2022-10-19T03:58:51;52.25;;;19.27;;
5758;SDS011;2904;48.788;9.196;2022-10-19T04:01:23;46.60;;;18.42;;
5758;SDS011;2904;48.788;9.196;2022-10-19T04:03:54;51.83;;;17.95;;
5758;SDS011;2904;48.788;9.196;2022-10-19T04:06:25;43.28;;;18.17;;
5758;SDS011;2904;48.788;9.196;2022-10-19T04:08:52;39.80;;;17.62;;
5758;SDS011;2904;48.788;9.196;2022-10-19T04:11:20;40.65;;;18.48;;
5758;SDS011;2904;48.788;9.196;2022-10-19T04:13:48;41.78;;;17.35;;
5758;SDS011;2904;48.788;9.196;2022-10-19T04:16:14;39.35;;;17.73;;
5758;SDS011;2904;48.788;9.196;2022-10-19T04:18:40;42.62;;;17.10;;
5758;SDS011;2904;48.788;9.196;2022-10-19T04:21:16;37.78;;;17.48;;
5758;SDS011;2904;48.788;9.196;2022-10-19T04:23:56;49.28;;;18.65;;
5758;SDS011;2904;48.788;9.196;2022-10-19T04:26:27;42.38;;;17.83;;
5758;SDS011;2904;48.788;9.196;2022-10-19T04:28:53;42.70;;;17.83;;
5758;SDS011;2904;48.788;9.196;2022-10-19T04:31:24;40.25;;;16.80;;
5758;SDS011;2904;48.788;9.196;2022-10-19T04:33:51;42.45;;;18.40;;
5758;SDS011;2904;48.788;9.196;2022-10-19T04:36:16;37.58;;;17.50;;
5758;SDS011;2904;48.788;9.196;2022-10-19T04:38:42;37.60;;;17.50;;
5758;SDS011;2904;48.788;9.196;2022-10-19T04:41:10;38.30;;;17.00;;
5758;SDS011;2904;48.788;9.196;2022-10-19T04:43:37;38.58;;;18.08;;
5758;SDS011;2904;48.788;9.196;2022-10-19T04:46:04;32.08;;;16.85;;
5758;SDS011;2904;48.788;9.196;2022-10-19T04:48:31;34.67;;;17.35;;
5758;SDS011;2904;48.788;9.196;2022-10-19T04:50:58;39.03;;;17.83;;
5758;SDS011;2904;48.788;9.196;2022-10-19T04:53:24;34.90;;;16.83;;
5758;SDS011;2904;48.788;9.196;2022-10-19T04:55:50;37.38;;;17.42;;
5758;SDS011;2904;48.788;9.196;2022-10-19T04:58:15;36.88;;;16.65;;
5758;SDS011;2904;48.788;9.196;2022-10-19T05:00:41;31.73;;;16.15;;
5758;SDS011;2904;48.788;9.196;2022-10-19T05:03:06;31.55;;;16.75;;
5758;SDS011;2904;48.788;9.196;2022-10-19T05:05:32;34.83;;;16.95;;
5758;SDS011;2904;48.788;9.196;2022-10-19T05:07:58;30.55;;;16.58;;
5758;SDS011;2904;48.788;9.196;2022-10-19T05:10:24;31.92;;;16.65;;
5758;SDS011;2904;48.788;9.196;2022-10-19T05:12:50;33.20;;;15.25;;
5758;SDS011;2904;48.788;9.196;2022-10-19T05:15:16;33.28;;;17.17;;
5758;SDS011;2904;48.788;9.196;2022-10-19T05:17:42;38.33;;;16.55;;
5758;SDS011;2904;48.788;9.196;2022-10-19T05:20:08;32.95;;;17.45;;
5758;SDS011;2904;48.788;9.196;2022-10-19T05:22:36;34.92;;;17.15;;
5758;SDS011;2904;48.788;9.196;2022-10-19T05:25:03;29.80;;;16.62;;
5758;SDS011;2904;48.788;9.196;2022-10-19T05:27:29;27.98;;;15.75;;
5758;SDS011;2904;48.788;9.196;2022-10-19T05:29:55;25.83;;;16.33;;
5758;SDS011;2904;48.788;9.196;2022-10-19T05:32:21;29.12;;;16.25;;
5758;SDS011;2904;48.788;9.196;2022-10-19T05:34:46;30.83;;;16.55;;
5758;SDS011;2904;48.788;9.196;2022-10-19T05:37:12;28.23;;;16.10;;
5758;SDS011;2904;48.788;9.196;2022-10-19T05:39:37;28.60;;;15.77;;
5758;SDS011;2904;48.788;9.196;2022-10-19T05:42:03;25.55;;;15.23;;
5758;SDS011;2904;48.788;9.196;2022-10-19T05:44:29;25.80;;;14.95;;
5758;SDS011;2904;48.788;9.196;2022-10-19T05:46:55;25.73;;;15.10;;
5758;SDS011;2904;48.788;9.196;2022-10-19T05:49:20;30.27;;;14.95;;
5758;SDS011;2904;48.788;9.196;2022-10-19T05:51:47;26.17;;;15.38;;
5758;SDS011;2904;48.788;9.196;2022-10-19T05:54:13;31.00;;;16.75;;
5758;SDS011;2904;48.788;9.196;2022-10-19T05:56:40;29.50;;;16.10;;
5758;SDS011;2904;48.788;9.196;2022-10-19T05:59:07;23.27;;;14.90;;
5758;SDS011;2904;48.788;9.196;2022-10-19T06:01:35;25.05;;;15.50;;
5758;SDS011;2904;48.788;9.196;2022-10-19T06:04:01;29.25;;;16.50;;
5758;SDS011;2904;48.788;9.196;2022-10-19T06:06:29;31.23;;;17.00;;
5758;SDS011;2904;48.788;9.196;2022-10-19T06:08:55;30.42;;;16.85;;
5758;SDS011;2904;48.788;9.196;2022-10-19T06:11:26;27.95;;;16.75;;
5758;SDS011;2904;48.788;9.196;2022-10-19T06:13:55;27.50;;;16.42;;
5758;SDS011;2904;48.788;9.196;2022-10-19T06:16:23;27.55;;;16.62;;
5758;SDS011;2904;48.788;9.196;2022-10-19T06:18:51;29.58;;;16.70;;
5758;SDS011;2904;48.788;9.196;2022-10-19T06:21:19;28.15;;;15.82;;
5758;SDS011;2904;48.788;9.196;2022-10-19T06:23:50;27.45;;;16.20;;
5758;SDS011;2904;48.788;9.196;2022-10-19T06:26:16;28.62;;;16.40;;
5758;SDS011;2904;48.788;9.196;2022-10-19T06:28:43;31.62;;;17.12;;
5758;SDS011;2904;48.788;9.196;2022-10-19T06:31:09;30.05;;;16.02;;
5758;SDS011;2904;48.788;9.196;2022-10-19T06:33:37;25.58;;;15.90;;
5758;SDS011;2904;48.788;9.196;2022-10-19T06:36:14;30.58;;;16.77;;
5758;SDS011;2904;48.788;9.196;2022-10-19T06:38:43;28.05;;;15.63;;
5758;SDS011;2904;48.788;9.196;2022-10-19T06:41:09;27.37;;;15.57;;
5758;SDS011;2904;48.788;9.196;2022-10-19T06:43:36;26.00;;;16.67;;
5758;SDS011;2904;48.788;9.196;2022-10-19T06:46:05;26.75;;;16.10;;
5758;SDS011;2904;48.788;9.196;2022-10-19T06:48:32;30.85;;;15.63;;
5758;SDS011;2904;48.788;9.196;2022-10-19T06:51:00;26.02;;;16.20;;
5758;SDS011;2904;48.788;9.196;2022-10-19T06:53:27;28.08;;;16.25;;
5758;SDS011;2904;48.788;9.196;2022-10-19T06:55:56;25.58;;;15.55;;
5758;SDS011;2904;48.788;9.196;2022-10-19T06:58:23;28.52;;;16.08;;
5758;SDS011;2904;48.788;9.196;2022-10-19T07:01:07;26.37;;;15.95;;
5758;SDS011;2904;48.788;9.196;2022-10-19T07:03:35;29.45;;;17.65;;
5758;SDS011;2904;48.788;9.196;2022-10-19T07:06:03;26.02;;;15.98;;
5758;SDS011;2904;48.788;9.196;2022-10-19T07:08:30;31.08;;;17.42;;
5758;SDS011;2904;48.788;9.196;2022-10-19T07:10:59;32.50;;;18.52;;
5758;SDS011;2904;48.788;9.196;2022-10-19T07:13:27;31.15;;;17.10;;
5758;SDS011;2904;48.788;9.196;2022-10-19T07:15:57;30.10;;;17.48;;
5758;SDS011;2904;48.788;9.196;2022-10-19T07:18:25;36.75;;;17.25;;
5758;SDS011;2904;48.788;9.196;2022-10-19T07:20:58;31.12;;;16.87;;
5758;SDS011;2904;48.788;9.196;2022-10-19T07:23:26;29.77;;;15.40;;
5758;SDS011;2904;48.788;9.196;2022-10-19T07:25:53;27.83;;;15.70;;
5758;SDS011;2904;48.788;9.196;2022-10-19T07:28:24;23.35;;;14.48;;
5758;SDS011;2904;48.788;9.196;2022-10-19T07:30:50;26.02;;;14.80;;
5758;SDS011;2904;48.788;9.196;2022-10-19T07:33:15;23.15;;;14.32;;
5758;SDS011;2904;48.788;9.196;2022-10-19T07:35:41;30.45;;;16.20;;
5758;SDS011;2904;48.788;9.196;2022-10-19T07:38:07;23.25;;;14.60;;
5758;SDS011;2904;48.788;9.196;2022-10-19T07:40:33;25.48;;;14.13;;
5758;SDS011;2904;48.788;9.196;2022-10-19T07:42:59;22.70;;;13.73;;
5758;SDS011;2904;48.788;9.196;2022-10-19T07:45:25;18.33;;;12.82;;
5758;SDS011;2904;48.788;9.196;2022-10-19T07:47:50;20.25;;;12.65;;
5758;SDS011;2904;48.788;9.196;2022-10-19T07:50:16;16.87;;;11.32;;
5758;SDS011;2904;48.788;9.196;2022-10-19T07:52:41;15.32;;;10.45;;
5758;SDS011;2904;48.788;9.196;2022-10-19T07:55:07;15.57;;;10.50;;
5758;SDS011;2904;48.788;9.196;2022-10-19T07:57:33;19.92;;;10.60;;
5758;SDS011;2904;48.788;9.196;2022-10-19T07:59:59;16.83;;;9.88;;
5758;SDS011;2904;48.788;9.196;2022-10-19T08:02:26;15.50;;;9.90;;
5758;SDS011;2904;48.788;9.196;2022-10-19T08:04:51;14.07;;;9.82;;
5758;SDS011;2904;48.788;9.196;2022-10-19T08:07:17;12.80;;;9.82;;
5758;SDS011;2904;48.788;9.196;2022-10-19T08:09:43;19.08;;;9.95;;
5758;SDS011;2904;48.788;9.196;2022-10-19T08:12:08;16.83;;;10.15;;
5758;SDS011;2904;48.788;9.196;2022-10-19T08:14:34;15.68;;;9.80;;
5758;SDS011;2904;48.788;9.196;2022-10-19T08:16:59;12.27;;;8.90;;
5758;SDS011;2904;48.788;9.196;2022-10-19T08:19:26;12.90;;;8.55;;
5758;SDS011;2904;48.788;9.196;2022-10-19T08:21:51;12.95;;;9.18;;
5758;SDS011;2904;48.788;9.196;2022-10-19T08:24:17;14.25;;;9.02;;
5758;SDS011;2904;48.788;9.196;2022-10-19T08:26:44;14.18;;;9.35;;
5758;SDS011;2904;48.788;9.196;2022-10-19T08:29:12;15.30;;;9.40;;
5758;SDS011;2904;48.788;9.196;2022-10-19T08:31:39;15.73;;;9.27;;
5758;SDS011;2904;48.788;9.196;2022-10-19T08:34:05;17.15;;;9.95;;
5758;SDS011;2904;48.788;9.196;2022-10-19T08:36:32;13.70;;;8.93;;
5758;SDS011;2904;48.788;9.196;2022-10-19T08:38:59;12.05;;;8.88;;
5758;SDS011;2904;48.788;9.196;2022-10-19T08:42:28;13.52;;;8.93;;
5758;SDS011;2904;48.788;9.196;2022-10-19T08:45:13;14.70;;;9.43;;
5758;SDS011;2904;48.788;9.196;2022-10-19T08:48:36;19.65;;;9.05;;
5758;SDS011;2904;48.788;9.196;2022-10-19T08:51:07;13.70;;;8.35;;
5758;SDS011;2904;48.788;9.196;2022-10-19T08:53:42;14.27;;;9.15;;
5758;SDS011;2904;48.788;9.196;2022-10-19T08:56:35;11.85;;;7.80;;
5758;SDS011;2904;48.788;9.196;2022-10-19T08:59:12;12.40;;;8.00;;
5758;SDS011;2904;48.788;9.196;2022-10-19T09:10:19;11.68;;;7.35;;
5758;SDS011;2904;48.788;9.196;2022-10-19T09:12:55;10.65;;;7.55;;
5758;SDS011;2904;48.788;9.196;2022-10-19T09:15:33;10.23;;;6.40;;
5758;SDS011;2904;48.788;9.196;2022-10-19T09:18:13;10.57;;;6.70;;
5758;SDS011;2904;48.788;9.196;2022-10-19T09:20:51;10.20;;;6.25;;
5758;SDS011;2904;48.788;9.196;2022-10-19T09:23:38;10.18;;;6.18;;
5758;SDS011;2904;48.788;9.196;2022-10-19T09:26:27;8.48;;;6.22;;
5758;SDS011;2904;48.788;9.196;2022-10-19T09:29:00;11.12;;;7.20;;
5758;SDS011;2904;48.788;9.196;2022-10-19T09:31:32;9.20;;;6.12;;
5758;SDS011;2904;48.788;9.196;2022-10-19T09:34:35;9.60;;;6.22;;
5758;SDS011;2904;48.788;9.196;2022-10-19T09:37:05;8.43;;;5.80;;
5758;SDS011;2904;48.788;9.196;2022-10-19T09:39:31;10.45;;;6.32;;
5758;SDS011;2904;48.788;9.196;2022-10-19T09:41:58;7.43;;;5.12;;
5758;SDS011;2904;48.788;9.196;2022-10-19T09:44:29;7.53;;;5.40;;
5758;SDS011;2904;48.788;9.196;2022-10-19T09:56:21;6.12;;;4.10;;
5758;SDS011;2904;48.788;9.196;2022-10-19T09:58:49;6.72;;;4.70;;
5758;SDS011;2904;48.788;9.196;2022-10-19T10:01:34;6.40;;;3.83;;
5758;SDS011;2904;48.788;9.196;2022-10-19T10:04:08;5.57;;;4.62;;
5758;SDS011;2904;48.788;9.196;2022-10-19T10:06:41;5.90;;;4.55;;
5758;SDS011;2904;48.788;9.196;2022-10-19T10:09:15;7.35;;;4.43;;
5758;SDS011;2904;48.788;9.196;2022-10-19T10:11:42;5.28;;;4.37;;
5758;SDS011;2904;48.788;9.196;2022-10-19T10:14:19;5.18;;;4.68;;
5758;SDS011;2904;48.788;9.196;2022-10-19T10:16:55;9.23;;;4.43;;
5758;SDS011;2904;48.788;9.196;2022-10-19T10:19:26;5.15;;;3.95;;
5758;SDS011;2904;48.788;9.196;2022-10-19T10:21:54;8.00;;;4.37;;
5758;SDS011;2904;48.788;9.196;2022-10-19T10:24:23;5.50;;;4.07;;
5758;SDS011;2904;48.788;9.196;2022-10-19T10:26:52;4.85;;;3.40;;
5758;SDS011;2904;48.788;9.196;2022-10-19T10:29:22;6.53;;;3.97;;
5758;SDS011;2904;48.788;9.196;2022-10-19T10:32:12;4.80;;;3.78;;
5758;SDS011;2904;48.788;9.196;2022-10-19T10:34:46;7.12;;;3.65;;
5758;SDS011;2904;48.788;9.196;2022-10-19T10:37:21;6.22;;;3.58;;
5758;SDS011;2904;48.788;9.196;2022-10-19T10:39:52;4.72;;;3.65;;
5758;SDS011;2904;48.788;9.196;2022-10-19T10:45:50;3.78;;;3.37;;
5758;SDS011;2904;48.788;9.196;2022-10-19T10:48:28;10.77;;;6.37;;
5758;SDS011;2904;48.788;9.196;2022-10-19T10:50:57;6.80;;;3.20;;
5758;SDS011;2904;48.788;9.196;2022-10-19T10:53:33;6.25;;;3.25;;
5758;SDS011;2904;48.788;9.196;2022-10-19T10:56:27;5.43;;;3.50;;
5758;SDS011;2904;48.788;9.196;2022-10-19T10:59:17;3.92;;;3.15;;
5758;SDS011;2904;48.788;9.196;2022-10-19T11:06:11;6.12;;;2.75;;
5758;SDS011;2904;48.788;9.196;2022-10-19T11:08:48;4.22;;;3.15;;
5758;SDS011;2904;48.788;9.196;2022-10-19T11:11:24;6.00;;;2.62;;
5758;SDS011;2904;48.788;9.196;2022-10-19T11:17:06;3.83;;;3.40;;
5758;SDS011;2904;48.788;9.196;2022-10-19T11:19:46;5.12;;;3.37;;
5758;SDS011;2904;48.788;9.196;2022-10-19T11:22:19;4.45;;;3.30;;
5758;SDS011;2904;48.788;9.196;2022-10-19T11:26:39;4.75;;;3.05;;
5758;SDS011;2904;48.788;9.196;2022-10-19T11:29:37;4.68;;;3.10;;
5758;SDS011;2904;48.788;9.196;2022-10-19T11:32:22;5.20;;;3.47;;
5758;SDS011;2904;48.788;9.196;2022-10-19T11:35:58;4.35;;;3.17;;
5758;SDS011;2904;48.788;9.196;2022-10-19T11:39:10;6.50;;;2.90;;
5758;SDS011;2904;48.788;9.196;2022-10-19T11:46:04;4.97;;;3.37;;
5758;SDS011;2904;48.788;9.196;2022-10-19T11:58:36;4.47;;;2.70;;
5758;SDS011;2904;48.788;9.196;2022-10-19T12:01:32;3.58;;;3.28;;
5758;SDS011;2904;48.788;9.196;2022-10-19T12:16:00;3.20;;;2.90;;
5758;SDS011;2904;48.788;9.196;2022-10-19T12:18:39;7.97;;;3.03;;
5758;SDS011;2904;48.788;9.196;2022-10-19T12:21:13;3.72;;;3.10;;
5758;SDS011;2904;48.788;9.196;2022-10-19T12:23:47;3.62;;;2.72;;
5758;SDS011;2904;48.788;9.196;2022-10-19T12:26:14;5.10;;;3.35;;
5758;SDS011;2904;48.788;9.196;2022-10-19T12:28:46;5.07;;;3.50;;
5758;SDS011;2904;48.788;9.196;2022-10-19T12:31:15;4.28;;;3.58;;
5758;SDS011;2904;48.788;9.196;2022-10-19T12:34:19;4.97;;;3.47;;
5758;SDS011;2904;48.788;9.196;2022-10-19T12:40:22;6.55;;;3.45;;
5758;SDS011;2904;48.788;9.196;2022-10-19T12:43:14;8.73;;;3.62;;
5758;SDS011;2904;48.788;9.196;2022-10-19T12:45:58;5.07;;;3.30;;
5758;SDS011;2904;48.788;9.196;2022-10-19T12:51:04;4.22;;;3.62;;
5758;SDS011;2904;48.788;9.196;2022-10-19T12:53:36;5.90;;;3.62;;
5758;SDS011;2904;48.788;9.196;2022-10-19T12:56:22;5.82;;;4.37;;
5758;SDS011;2904;48.788;9.196;2022-10-19T12:58:56;5.95;;;4.22;;
5758;SDS011;2904;48.788;9.196;2022-10-19T13:01:26;5.75;;;3.83;;
5758;SDS011;2904;48.788;9.196;2022-10-19T13:04:15;3.83;;;3.28;;
5758;SDS011;2904;48.788;9.196;2022-10-19T13:07:06;4.70;;;3.65;;
5758;SDS011;2904;48.788;9.196;2022-10-19T13:09:34;4.35;;;3.90;;
5758;SDS011;2904;48.788;9.196;2022-10-19T13:15:47;5.70;;;3.70;;
5758;SDS011;2904;48.788;9.196;2022-10-19T13:18:15;5.30;;;3.67;;
5758;SDS011;2904;48.788;9.196;2022-10-19T13:27:46;5.03;;;4.12;;
5758;SDS011;2904;48.788;9.196;2022-10-19T13:33:40;4.47;;;3.17;;
5758;SDS011;2904;48.788;9.196;2022-10-19T13:36:09;6.18;;;3.40;;
5758;SDS011;2904;48.788;9.196;2022-10-19T13:38:40;5.05;;;3.70;;
5758;SDS011;2904;48.788;9.196;2022-10-19T13:44:25;4.78;;;3.62;;
5758;SDS011;2904;48.788;9.196;2022-10-19T13:47:19;3.92;;;3.22;;
5758;SDS011;2904;48.788;9.196;2022-10-19T14:11:34;3.50;;;3.20;;
5758;SDS011;2904;48.788;9.196;2022-10-19T14:14:11;5.05;;;2.78;;
5758;SDS011;2904;48.788;9.196;2022-10-19T14:16:50;2.97;;;2.67;;
5758;SDS011;2904;48.788;9.196;2022-10-19T14:19:28;3.97;;;2.80;;
5758;SDS011;2904;48.788;9.196;2022-10-19T14:22:42;4.00;;;3.00;;
5758;SDS011;2904;48.788;9.196;2022-10-19T14:25:18;3.20;;;2.87;;
5758;SDS011;2904;48.788;9.196;2022-10-19T14:27:46;2.97;;;2.30;;
5758;SDS011;2904;48.788;9.196;2022-10-19T14:30:29;2.90;;;2.60;;
5758;SDS011;2904;48.788;9.196;2022-10-19T14:32:58;4.25;;;2.80;;
5758;SDS011;2904;48.788;9.196;2022-10-19T14:35:30;3.50;;;2.72;;
5758;SDS011;2904;48.788;9.196;2022-10-19T14:38:06;4.68;;;2.40;;
5758;SDS011;2904;48.788;9.196;2022-10-19T14:40:43;3.53;;;2.80;;
5758;SDS011;2904;48.788;9.196;2022-10-19T14:47:26;3.37;;;2.67;;
5758;SDS011;2904;48.788;9.196;2022-10-19T14:49:54;5.80;;;2.60;;
5758;SDS011;2904;48.788;9.196;2022-10-19T14:52:35;2.70;;;2.50;;
5758;SDS011;2904;48.788;9.196;2022-10-19T14:55:05;4.60;;;3.00;;
5758;SDS011;2904;48.788;9.196;2022-10-19T14:57:35;3.60;;;2.75;;
5758;SDS011;2904;48.788;9.196;2022-10-19T15:00:04;3.40;;;2.80;;
5758;SDS011;2904;48.788;9.196;2022-10-19T15:02:36;4.40;;;3.03;;
5758;SDS011;2904;48.788;9.196;2022-10-19T15:05:17;6.80;;;2.80;;
5758;SDS011;2904;48.788;9.196;2022-10-19T15:07:48;3.50;;;3.15;;
5758;SDS011;2904;48.788;9.196;2022-10-19T15:10:22;4.62;;;3.08;;
5758;SDS011;2904;48.788;9.196;2022-10-19T15:12:51;7.28;;;3.03;;
5758;SDS011;2904;48.788;9.196;2022-10-19T15:15:26;3.97;;;3.10;;
5758;SDS011;2904;48.788;9.196;2022-10-19T15:18:04;5.32;;;3.62;;
5758;SDS011;2904;48.788;9.196;2022-10-19T15:20:31;5.00;;;3.22;;
5758;SDS011;2904;48.788;9.196;2022-10-19T15:22:59;3.62;;;2.95;;
5758;SDS011;2904;48.788;9.196;2022-10-19T15:25:58;4.65;;;3.22;;
5758;SDS011;2904;48.788;9.196;2022-10-19T15:28:37;3.70;;;3.40;;
5758;SDS011;2904;48.788;9.196;2022-10-19T15:31:04;3.30;;;3.00;;
5758;SDS011;2904;48.788;9.196;2022-10-19T15:33:37;9.00;;;5.53;;
5758;SDS011;2904;48.788;9.196;2022-10-19T15:36:05;12.23;;;9.57;;
5758;SDS011;2904;48.788;9.196;2022-10-19T15:38:33;8.75;;;3.78;;
5758;SDS011;2904;48.788;9.196;2022-10-19T15:41:00;6.78;;;3.62;;
5758;SDS011;2904;48.788;9.196;2022-10-19T15:43:34;8.90;;;3.72;;
5758;SDS011;2904;48.788;9.196;2022-10-19T15:46:28;5.28;;;3.53;;
5758;SDS011;2904;48.788;9.196;2022-10-19T15:54:57;7.85;;;4.37;;
5758;SDS011;2904;48.788;9.196;2022-10-19T15:57:34;5.40;;;3.72;;
5758;SDS011;2904;48.788;9.196;2022-10-19T16:00:12;3.70;;;3.37;;
5758;SDS011;2904;48.788;9.196;2022-10-19T16:02:40;4.97;;;3.83;;
5758;SDS011;2904;48.788;9.196;2022-10-19T16:05:06;5.35;;;3.97;;
5758;SDS011;2904;48.788;9.196;2022-10-19T16:07:33;4.65;;;3.42;;
5758;SDS011;2904;48.788;9.196;2022-10-19T16:10:02;4.70;;;4.00;;
5758;SDS011;2904;48.788;9.196;2022-10-19T16:12:29;4.30;;;3.62;;
5758;SDS011;2904;48.788;9.196;2022-10-19T16:14:54;4.75;;;4.25;;
5758;SDS011;2904;48.788;9.196;2022-10-19T16:17:20;9.88;;;4.53;;
5758;SDS011;2904;48.788;9.196;2022-10-19T16:19:47;5.65;;;4.45;;
5758;SDS011;2904;48.788;9.196;2022-10-19T16:22:13;5.95;;;4.47;;
5758;SDS011;2904;48.788;9.196;2022-10-19T16:24:39;5.68;;;4.68;;
5758;SDS011;2904;48.788;9.196;2022-10-19T16:27:06;6.70;;;5.85;;
5758;SDS011;2904;48.788;9.196;2022-10-19T16:29:32;6.43;;;4.85;;
5758;SDS011;2904;48.788;9.196;2022-10-19T16:31:58;6.25;;;5.12;;
5758;SDS011;2904;48.788;9.196;2022-10-19T16:34:24;6.12;;;4.90;;
5758;SDS011;2904;48.788;9.196;2022-10-19T16:36:50;7.78;;;4.65;;
5758;SDS011;2904;48.788;9.196;2022-10-19T16:39:15;5.75;;;4.25;;
5758;SDS011;2904;48.788;9.196;2022-10-19T16:41:42;5.68;;;4.75;;
5758;SDS011;2904;48.788;9.196;2022-10-19T16:44:09;5.32;;;4.70;;
5758;SDS011;2904;48.788;9.196;2022-10-19T16:46:36;6.22;;;4.37;;
5758;SDS011;2904;48.788;9.196;2022-10-19T16:49:02;6.70;;;4.87;;
5758;SDS011;2904;48.788;9.196;2022-10-19T16:51:29;6.30;;;4.82;;
5758;SDS011;2904;48.788;9.196;2022-10-19T16:53:59;8.02;;;5.53;;
5758;SDS011;2904;48.788;9.196;2022-10-19T16:56:27;10.77;;;4.82;;
5758;SDS011;2904;48.788;9.196;2022-10-19T16:58:55;6.82;;;5.30;;
5758;SDS011;2904;48.788;9.196;2022-10-19T17:01:24;5.90;;;4.97;;
5758;SDS011;2904;48.788;9.196;2022-10-19T17:03:50;5.45;;;4.95;;
5758;SDS011;2904;48.788;9.196;2022-10-19T17:06:16;16.25;;;9.10;;
5758;SDS011;2904;48.788;9.196;2022-10-19T17:08:42;9.85;;;6.62;;
5758;SDS011;2904;48.788;9.196;2022-10-19T17:11:15;12.20;;;7.87;;
5758;SDS011;2904;48.788;9.196;2022-10-19T17:13:53;17.27;;;11.52;;
5758;SDS011;2904;48.788;9.196;2022-10-19T17:16:22;12.05;;;7.43;;
5758;SDS011;2904;48.788;9.196;2022-10-19T17:18:50;31.17;;;22.35;;
5758;SDS011;2904;48.788;9.196;2022-10-19T17:21:19;10.80;;;7.50;;
5758;SDS011;2904;48.788;9.196;2022-10-19T17:23:50;10.07;;;7.22;;
5758;SDS011;2904;48.788;9.196;2022-10-19T17:26:17;11.50;;;7.10;;
5758;SDS011;2904;48.788;9.196;2022-10-19T17:28:43;9.95;;;6.90;;
5758;SDS011;2904;48.788;9.196;2022-10-19T17:31:10;11.73;;;7.80;;
5758;SDS011;2904;48.788;9.196;2022-10-19T17:33:38;10.52;;;6.70;;